Churchdown, United Kingdom
Current Conditions -  °F | °C
As of 2:50 PM on Sunday 21 Dec 2014 (Local Time) from EGBJ Reporting Station
Broken Clouds Broken Clouds  
Wind Chill: 10°   Ceiling: 1300
Heat Index: 10°   Visibility: 6mi
Dew Point:   Wind: 12mph
Humidity: 94%   Direction: 220°SW
Pressure: 30.21"   Gusts: NA
Location:  51.89°N, 2.18°W
Report Text: EGBJ 211450Z 22010KT 190V250 9999 FEW008 BKN013 10/09 Q1023
Loading
Personal Weather Stations






























Interactive Weather Map New forecast layout! Learn more

10-Day Weather Forecast

Advertisements
Track Severe Weather on mobile